Airfield :
LOGIN :

Register | Disclaimer

   EN    FR    IT 

 










Legend :    VFR   Marginal VFR   IFR   Intensive IFR   Very Intensive IFR
Visi :
Ceiling :
>= 8 km
>= 3000ft
5 to 8 km
1000 to 3000 ft
1500m to 5 km
500 to 1000 ft
800 to 1500m
200 to 500 ft
< 800m
< 200 ft
Symbols :   Thunderstorms  Fog  Heavy snow  Heavy precipitations  Wind > 20 kt
SIGMETs :     Misc.  Thunderstorms  Icing  Turbulence  Mountain Waves  Volcanic Ashes







- Airport Elevation : 33 ft
- IATA code : MHZ


EGUN - RAF Mildenhall

CURRENT METAR :
  • 211101Z 26005KT 9999 SCT011 OVC034 13/13 A3050 RMK AO2A SLP332 WND DATA ESTMD $

EXPIRED METARs :
  • 211051Z AUTO M 9999 SCT011 OVC034 12/12 A3050 RMK AO2 SLP332 $
  • 211031Z AUTO 25004KT 9999 OVC010 12/12 A3050 RMK AO2 CIG 009 RWY29 SLP332 $
  • 211001Z 25005KT 9999 OVC008 10/10 A3050 RMK AO2A SLP332 WND DATA ESTMD $
  • 210926Z 25004KT 9999 OVC007 10/10 A3050 RMK AO2A SLP332 WND DATA ESTMD $
  • 210856Z 23006KT 9999 OVC006 09/09 A3050 RMK AO2A SLP332 WND DATA ESTMD T00920092 52010 .

TAF AMD TAF EGUN
Valid from the 21 at 04:00 until the 22 at 10:00 UTC


210455Z 2104/2210 24009KT 9999 BKN005 QNH3046INS
TEMPO 2104/2110 8000 BR BKN007
BECMG 2109/2110 18006KT 9999 BKN015 QNH3038INS
BECMG 2206/2207 20012G20KT 9999 BKN010 QNH3035INS TX14/2114Z TN08/2106Z
No reported NOTAMs for that airfield.



MET'MAP, your aeronautical weather chart ! - Copyright ORBIFLY December 2007 - Disclaimer

ORBIFLY MET'MAP TEAM :

Programming & Development : Alexandra Zaïnal
Concept & Development : Baudouin d'Aumeries
Co-Development & Prog : Marc-Olivier Méhu
Technical & hardware support : Manuel Goepfert

Contact : metmap@orbifly.com




SOURCES & CREDITS :

   NOAA